sensor_id;sensor_type;location;lat;lon;timestamp;P1;durP1;ratioP1;P2;durP2;ratioP2
12224;SDS011;6175;50.956;11.064;2023-12-20T00:00:58;0.70;;;0.70;;
12224;SDS011;6175;50.956;11.064;2023-12-20T00:03:25;0.90;;;0.68;;
12224;SDS011;6175;50.956;11.064;2023-12-20T00:05:52;0.63;;;0.63;;
12224;SDS011;6175;50.956;11.064;2023-12-20T00:08:21;2.40;;;0.40;;
12224;SDS011;6175;50.956;11.064;2023-12-20T00:10:48;0.82;;;0.82;;
12224;SDS011;6175;50.956;11.064;2023-12-20T00:13:16;0.55;;;0.55;;
12224;SDS011;6175;50.956;11.064;2023-12-20T00:15:42;0.60;;;0.50;;
12224;SDS011;6175;50.956;11.064;2023-12-20T00:18:09;0.43;;;0.43;;
12224;SDS011;6175;50.956;11.064;2023-12-20T00:20:36;0.60;;;0.60;;
12224;SDS011;6175;50.956;11.064;2023-12-20T00:23:04;0.50;;;0.50;;
12224;SDS011;6175;50.956;11.064;2023-12-20T00:25:32;0.40;;;0.40;;
12224;SDS011;6175;50.956;11.064;2023-12-20T00:27:59;0.50;;;0.50;;
12224;SDS011;6175;50.956;11.064;2023-12-20T00:30:27;0.40;;;0.40;;
12224;SDS011;6175;50.956;11.064;2023-12-20T00:32:55;0.98;;;0.50;;
12224;SDS011;6175;50.956;11.064;2023-12-20T00:35:22;0.60;;;0.60;;
12224;SDS011;6175;50.956;11.064;2023-12-20T00:37:49;0.57;;;0.57;;
12224;SDS011;6175;50.956;11.064;2023-12-20T00:40:16;0.50;;;0.50;;
12224;SDS011;6175;50.956;11.064;2023-12-20T00:42:44;0.40;;;0.40;;
12224;SDS011;6175;50.956;11.064;2023-12-20T00:45:12;0.50;;;0.50;;
12224;SDS011;6175;50.956;11.064;2023-12-20T00:47:39;0.50;;;0.50;;
12224;SDS011;6175;50.956;11.064;2023-12-20T00:50:06;0.52;;;0.52;;
12224;SDS011;6175;50.956;11.064;2023-12-20T00:52:34;0.60;;;0.60;;
12224;SDS011;6175;50.956;11.064;2023-12-20T00:55:01;0.60;;;0.60;;
12224;SDS011;6175;50.956;11.064;2023-12-20T00:57:28;0.60;;;0.60;;
12224;SDS011;6175;50.956;11.064;2023-12-20T00:59:57;0.50;;;0.50;;
12224;SDS011;6175;50.956;11.064;2023-12-20T01:02:24;1.05;;;0.52;;
12224;SDS011;6175;50.956;11.064;2023-12-20T01:04:51;0.60;;;0.60;;
12224;SDS011;6175;50.956;11.064;2023-12-20T01:07:19;0.50;;;0.50;;
12224;SDS011;6175;50.956;11.064;2023-12-20T01:09:46;0.45;;;0.45;;
12224;SDS011;6175;50.956;11.064;2023-12-20T01:12:13;1.95;;;0.70;;
12224;SDS011;6175;50.956;11.064;2023-12-20T01:14:40;0.55;;;0.55;;
12224;SDS011;6175;50.956;11.064;2023-12-20T01:17:08;0.52;;;0.52;;
12224;SDS011;6175;50.956;11.064;2023-12-20T01:19:35;0.60;;;0.60;;
12224;SDS011;6175;50.956;11.064;2023-12-20T01:22:03;0.60;;;0.60;;
12224;SDS011;6175;50.956;11.064;2023-12-20T01:24:30;0.50;;;0.50;;
12224;SDS011;6175;50.956;11.064;2023-12-20T01:26:57;0.40;;;0.40;;
12224;SDS011;6175;50.956;11.064;2023-12-20T01:29:24;0.60;;;0.60;;
12224;SDS011;6175;50.956;11.064;2023-12-20T01:31:51;0.50;;;0.50;;
12224;SDS011;6175;50.956;11.064;2023-12-20T01:34:20;1.17;;;0.60;;
12224;SDS011;6175;50.956;11.064;2023-12-20T01:36:47;0.57;;;0.57;;
12224;SDS011;6175;50.956;11.064;2023-12-20T01:39:14;0.47;;;0.47;;
12224;SDS011;6175;50.956;11.064;2023-12-20T01:41:41;0.60;;;0.60;;
12224;SDS011;6175;50.956;11.064;2023-12-20T01:44:08;1.55;;;0.63;;
12224;SDS011;6175;50.956;11.064;2023-12-20T01:46:35;0.55;;;0.55;;
12224;SDS011;6175;50.956;11.064;2023-12-20T01:49:02;0.50;;;0.50;;
12224;SDS011;6175;50.956;11.064;2023-12-20T01:51:31;0.50;;;0.50;;
12224;SDS011;6175;50.956;11.064;2023-12-20T01:53:58;0.40;;;0.40;;
12224;SDS011;6175;50.956;11.064;2023-12-20T01:56:26;0.47;;;0.47;;
12224;SDS011;6175;50.956;11.064;2023-12-20T01:58:53;0.60;;;0.60;;
12224;SDS011;6175;50.956;11.064;2023-12-20T02:01:22;0.60;;;0.60;;
12224;SDS011;6175;50.956;11.064;2023-12-20T02:03:50;0.73;;;0.70;;
12224;SDS011;6175;50.956;11.064;2023-12-20T02:06:18;0.60;;;0.60;;
12224;SDS011;6175;50.956;11.064;2023-12-20T02:08:46;0.60;;;0.60;;
12224;SDS011;6175;50.956;11.064;2023-12-20T02:11:13;1.10;;;0.52;;
12224;SDS011;6175;50.956;11.064;2023-12-20T02:13:41;0.40;;;0.40;;
12224;SDS011;6175;50.956;11.064;2023-12-20T02:16:08;0.60;;;0.60;;
12224;SDS011;6175;50.956;11.064;2023-12-20T02:18:35;0.60;;;0.60;;
12224;SDS011;6175;50.956;11.064;2023-12-20T02:21:03;0.75;;;0.75;;
12224;SDS011;6175;50.956;11.064;2023-12-20T02:23:32;0.60;;;0.60;;
12224;SDS011;6175;50.956;11.064;2023-12-20T02:25:59;0.50;;;0.50;;
12224;SDS011;6175;50.956;11.064;2023-12-20T02:28:26;0.43;;;0.43;;
12224;SDS011;6175;50.956;11.064;2023-12-20T02:30:53;0.50;;;0.50;;
12224;SDS011;6175;50.956;11.064;2023-12-20T02:33:20;0.82;;;0.80;;
12224;SDS011;6175;50.956;11.064;2023-12-20T02:35:47;0.50;;;0.50;;
12224;SDS011;6175;50.956;11.064;2023-12-20T02:38:14;1.05;;;0.60;;
12224;SDS011;6175;50.956;11.064;2023-12-20T02:40:42;0.50;;;0.50;;
12224;SDS011;6175;50.956;11.064;2023-12-20T02:43:09;0.60;;;0.60;;
12224;SDS011;6175;50.956;11.064;2023-12-20T02:45:36;0.77;;;0.60;;
12224;SDS011;6175;50.956;11.064;2023-12-20T02:48:04;0.40;;;0.40;;
12224;SDS011;6175;50.956;11.064;2023-12-20T02:50:31;0.60;;;0.60;;
12224;SDS011;6175;50.956;11.064;2023-12-20T02:52:58;0.50;;;0.50;;
12224;SDS011;6175;50.956;11.064;2023-12-20T02:55:25;0.77;;;0.77;;
12224;SDS011;6175;50.956;11.064;2023-12-20T02:57:54;0.60;;;0.60;;
12224;SDS011;6175;50.956;11.064;2023-12-20T03:00:21;0.60;;;0.60;;
12224;SDS011;6175;50.956;11.064;2023-12-20T03:02:48;0.55;;;0.55;;
12224;SDS011;6175;50.956;11.064;2023-12-20T03:05:15;0.57;;;0.57;;
12224;SDS011;6175;50.956;11.064;2023-12-20T03:07:42;0.50;;;0.50;;
12224;SDS011;6175;50.956;11.064;2023-12-20T03:10:09;0.60;;;0.60;;
12224;SDS011;6175;50.956;11.064;2023-12-20T03:12:36;0.43;;;0.43;;
12224;SDS011;6175;50.956;11.064;2023-12-20T03:15:06;0.63;;;0.50;;
12224;SDS011;6175;50.956;11.064;2023-12-20T03:17:33;0.60;;;0.60;;
12224;SDS011;6175;50.956;11.064;2023-12-20T03:20:00;0.70;;;0.70;;
12224;SDS011;6175;50.956;11.064;2023-12-20T03:22:28;1.05;;;0.52;;
12224;SDS011;6175;50.956;11.064;2023-12-20T03:24:55;0.57;;;0.57;;
12224;SDS011;6175;50.956;11.064;2023-12-20T03:27:22;0.50;;;0.50;;
12224;SDS011;6175;50.956;11.064;2023-12-20T03:29:49;0.60;;;0.60;;
12224;SDS011;6175;50.956;11.064;2023-12-20T03:32:18;0.52;;;0.52;;
12224;SDS011;6175;50.956;11.064;2023-12-20T03:34:45;0.40;;;0.40;;
12224;SDS011;6175;50.956;11.064;2023-12-20T03:37:13;0.50;;;0.50;;
12224;SDS011;6175;50.956;11.064;2023-12-20T03:39:40;0.95;;;0.52;;
12224;SDS011;6175;50.956;11.064;2023-12-20T03:42:07;0.60;;;0.60;;
12224;SDS011;6175;50.956;11.064;2023-12-20T03:44:34;0.55;;;0.50;;
12224;SDS011;6175;50.956;11.064;2023-12-20T03:47:01;0.60;;;0.60;;
12224;SDS011;6175;50.956;11.064;2023-12-20T03:49:29;0.50;;;0.50;;
12224;SDS011;6175;50.956;11.064;2023-12-20T03:51:56;0.73;;;0.73;;
12224;SDS011;6175;50.956;11.064;2023-12-20T03:54:23;0.50;;;0.50;;
12224;SDS011;6175;50.956;11.064;2023-12-20T03:56:51;0.50;;;0.50;;
12224;SDS011;6175;50.956;11.064;2023-12-20T03:59:18;0.40;;;0.40;;
12224;SDS011;6175;50.956;11.064;2023-12-20T04:01:45;0.60;;;0.60;;
12224;SDS011;6175;50.956;11.064;2023-12-20T04:04:12;0.40;;;0.40;;
12224;SDS011;6175;50.956;11.064;2023-12-20T04:06:41;0.73;;;0.73;;
12224;SDS011;6175;50.956;11.064;2023-12-20T04:09:08;0.60;;;0.60;;
12224;SDS011;6175;50.956;11.064;2023-12-20T04:11:36;0.50;;;0.50;;
12224;SDS011;6175;50.956;11.064;2023-12-20T04:14:03;0.60;;;0.60;;
12224;SDS011;6175;50.956;11.064;2023-12-20T04:16:30;0.50;;;0.50;;
12224;SDS011;6175;50.956;11.064;2023-12-20T04:18:57;0.70;;;0.70;;
12224;SDS011;6175;50.956;11.064;2023-12-20T04:21:24;0.40;;;0.40;;
12224;SDS011;6175;50.956;11.064;2023-12-20T04:23:53;1.38;;;0.70;;
12224;SDS011;6175;50.956;11.064;2023-12-20T04:26:20;0.70;;;0.70;;
12224;SDS011;6175;50.956;11.064;2023-12-20T04:28:47;0.65;;;0.65;;
12224;SDS011;6175;50.956;11.064;2023-12-20T04:31:14;0.50;;;0.50;;
12224;SDS011;6175;50.956;11.064;2023-12-20T04:33:42;0.70;;;0.70;;
12224;SDS011;6175;50.956;11.064;2023-12-20T04:36:09;0.70;;;0.70;;
12224;SDS011;6175;50.956;11.064;2023-12-20T04:38:36;0.80;;;0.80;;
12224;SDS011;6175;50.956;11.064;2023-12-20T04:41:04;0.73;;;0.73;;
12224;SDS011;6175;50.956;11.064;2023-12-20T04:43:31;0.77;;;0.77;;
12224;SDS011;6175;50.956;11.064;2023-12-20T04:45:58;1.00;;;1.00;;
12224;SDS011;6175;50.956;11.064;2023-12-20T04:48:26;0.80;;;0.80;;
12224;SDS011;6175;50.956;11.064;2023-12-20T04:50:53;1.10;;;1.00;;
12224;SDS011;6175;50.956;11.064;2023-12-20T04:53:20;1.10;;;1.05;;
12224;SDS011;6175;50.956;11.064;2023-12-20T04:55:48;1.08;;;1.08;;
12224;SDS011;6175;50.956;11.064;2023-12-20T04:58:16;1.17;;;1.10;;
12224;SDS011;6175;50.956;11.064;2023-12-20T05:00:43;1.10;;;1.10;;
12224;SDS011;6175;50.956;11.064;2023-12-20T05:03:11;1.70;;;1.60;;
12224;SDS011;6175;50.956;11.064;2023-12-20T05:05:37;1.67;;;1.58;;
12224;SDS011;6175;50.956;11.064;2023-12-20T05:08:04;1.50;;;1.40;;
12224;SDS011;6175;50.956;11.064;2023-12-20T05:10:31;2.03;;;1.77;;
12224;SDS011;6175;50.956;11.064;2023-12-20T05:12:59;2.00;;;1.90;;
12224;SDS011;6175;50.956;11.064;2023-12-20T05:15:27;2.47;;;2.28;;
12224;SDS011;6175;50.956;11.064;2023-12-20T05:17:54;2.78;;;2.10;;
12224;SDS011;6175;50.956;11.064;2023-12-20T05:20:21;2.50;;;2.30;;
12224;SDS011;6175;50.956;11.064;2023-12-20T05:22:49;2.30;;;2.10;;
12224;SDS011;6175;50.956;11.064;2023-12-20T05:25:16;2.30;;;2.10;;
12224;SDS011;6175;50.956;11.064;2023-12-20T05:27:43;2.25;;;2.05;;
12224;SDS011;6175;50.956;11.064;2023-12-20T05:30:11;2.30;;;2.05;;
12224;SDS011;6175;50.956;11.064;2023-12-20T05:32:40;2.75;;;2.55;;
12224;SDS011;6175;50.956;11.064;2023-12-20T05:35:07;2.60;;;2.30;;
12224;SDS011;6175;50.956;11.064;2023-12-20T05:37:34;2.45;;;2.25;;
12224;SDS011;6175;50.956;11.064;2023-12-20T05:40:01;2.35;;;2.15;;
12224;SDS011;6175;50.956;11.064;2023-12-20T05:42:29;2.60;;;2.40;;
12224;SDS011;6175;50.956;11.064;2023-12-20T05:44:56;2.33;;;2.22;;
12224;SDS011;6175;50.956;11.064;2023-12-20T05:47:23;2.33;;;2.13;;
12224;SDS011;6175;50.956;11.064;2023-12-20T05:49:52;2.10;;;1.90;;
12224;SDS011;6175;50.956;11.064;2023-12-20T05:52:20;1.90;;;1.80;;
12224;SDS011;6175;50.956;11.064;2023-12-20T05:54:47;1.60;;;1.50;;
12224;SDS011;6175;50.956;11.064;2023-12-20T05:57:14;2.08;;;1.88;;
12224;SDS011;6175;50.956;11.064;2023-12-20T05:59:41;2.10;;;2.00;;
12224;SDS011;6175;50.956;11.064;2023-12-20T06:02:08;2.13;;;1.90;;
12224;SDS011;6175;50.956;11.064;2023-12-20T06:04:35;2.10;;;1.90;;
12224;SDS011;6175;50.956;11.064;2023-12-20T06:07:04;2.05;;;1.90;;
12224;SDS011;6175;50.956;11.064;2023-12-20T06:09:31;2.38;;;2.17;;
12224;SDS011;6175;50.956;11.064;2023-12-20T06:11:58;2.80;;;2.60;;
12224;SDS011;6175;50.956;11.064;2023-12-20T06:14:25;2.67;;;2.47;;
12224;SDS011;6175;50.956;11.064;2023-12-20T06:16:52;3.80;;;3.03;;
12224;SDS011;6175;50.956;11.064;2023-12-20T06:19:19;3.10;;;2.85;;
12224;SDS011;6175;50.956;11.064;2023-12-20T06:21:46;4.80;;;3.00;;
12224;SDS011;6175;50.956;11.064;2023-12-20T06:24:14;3.33;;;3.00;;
12224;SDS011;6175;50.956;11.064;2023-12-20T06:26:41;4.07;;;3.25;;
12224;SDS011;6175;50.956;11.064;2023-12-20T06:29:08;3.22;;;2.92;;
12224;SDS011;6175;50.956;11.064;2023-12-20T06:31:35;3.30;;;3.00;;
12224;SDS011;6175;50.956;11.064;2023-12-20T06:34:02;3.65;;;2.95;;
12224;SDS011;6175;50.956;11.064;2023-12-20T06:36:29;3.40;;;3.10;;
12224;SDS011;6175;50.956;11.064;2023-12-20T06:38:56;4.50;;;2.70;;
12224;SDS011;6175;50.956;11.064;2023-12-20T06:41:27;4.25;;;2.83;;
12224;SDS011;6175;50.956;11.064;2023-12-20T06:43:54;3.67;;;2.67;;
12224;SDS011;6175;50.956;11.064;2023-12-20T06:46:21;4.88;;;2.60;;
12224;SDS011;6175;50.956;11.064;2023-12-20T06:48:48;2.63;;;2.17;;
12224;SDS011;6175;50.956;11.064;2023-12-20T06:51:16;4.47;;;2.00;;
12224;SDS011;6175;50.956;11.064;2023-12-20T06:53:44;3.78;;;2.30;;
12224;SDS011;6175;50.956;11.064;2023-12-20T06:56:11;4.05;;;2.65;;
12224;SDS011;6175;50.956;11.064;2023-12-20T06:58:40;3.85;;;2.35;;
12224;SDS011;6175;50.956;11.064;2023-12-20T07:01:10;3.17;;;2.53;;
12224;SDS011;6175;50.956;11.064;2023-12-20T07:03:37;4.05;;;2.70;;
12224;SDS011;6175;50.956;11.064;2023-12-20T07:06:04;4.80;;;3.08;;
12224;SDS011;6175;50.956;11.064;2023-12-20T07:08:31;4.70;;;3.25;;
12224;SDS011;6175;50.956;11.064;2023-12-20T07:10:59;4.53;;;3.28;;
12224;SDS011;6175;50.956;11.064;2023-12-20T07:13:26;5.07;;;3.10;;
12224;SDS011;6175;50.956;11.064;2023-12-20T07:15:54;3.47;;;3.13;;
12224;SDS011;6175;50.956;11.064;2023-12-20T07:18:21;4.68;;;2.83;;
12224;SDS011;6175;50.956;11.064;2023-12-20T07:20:49;4.25;;;2.92;;
12224;SDS011;6175;50.956;11.064;2023-12-20T07:23:16;5.15;;;3.17;;
12224;SDS011;6175;50.956;11.064;2023-12-20T07:25:44;2.83;;;2.58;;
12224;SDS011;6175;50.956;11.064;2023-12-20T07:28:12;3.22;;;2.92;;
12224;SDS011;6175;50.956;11.064;2023-12-20T07:30:39;5.10;;;3.20;;
12224;SDS011;6175;50.956;11.064;2023-12-20T07:33:07;3.30;;;2.72;;
12224;SDS011;6175;50.956;11.064;2023-12-20T07:35:35;3.72;;;2.70;;
12224;SDS011;6175;50.956;11.064;2023-12-20T07:38:02;5.13;;;2.92;;
12224;SDS011;6175;50.956;11.064;2023-12-20T07:40:29;4.63;;;3.00;;
12224;SDS011;6175;50.956;11.064;2023-12-20T07:42:56;4.00;;;2.85;;
12224;SDS011;6175;50.956;11.064;2023-12-20T07:45:24;4.38;;;2.47;;
12224;SDS011;6175;50.956;11.064;2023-12-20T07:47:51;4.00;;;2.75;;
12224;SDS011;6175;50.956;11.064;2023-12-20T07:50:20;3.33;;;2.80;;
12224;SDS011;6175;50.956;11.064;2023-12-20T07:52:47;4.68;;;2.58;;
12224;SDS011;6175;50.956;11.064;2023-12-20T07:55:14;5.32;;;3.38;;
12224;SDS011;6175;50.956;11.064;2023-12-20T07:57:41;5.22;;;3.00;;
12224;SDS011;6175;50.956;11.064;2023-12-20T08:00:09;3.58;;;2.80;;
12224;SDS011;6175;50.956;11.064;2023-12-20T08:02:36;4.32;;;2.90;;
12224;SDS011;6175;50.956;11.064;2023-12-20T08:05:04;4.80;;;2.72;;
12224;SDS011;6175;50.956;11.064;2023-12-20T08:07:32;5.35;;;3.00;;
12224;SDS011;6175;50.956;11.064;2023-12-20T08:09:59;3.58;;;3.08;;
12224;SDS011;6175;50.956;11.064;2023-12-20T08:12:27;3.75;;;3.42;;
12224;SDS011;6175;50.956;11.064;2023-12-20T08:14:54;4.65;;;3.28;;
12224;SDS011;6175;50.956;11.064;2023-12-20T08:17:22;4.07;;;3.17;;
12224;SDS011;6175;50.956;11.064;2023-12-20T08:19:49;3.45;;;2.90;;
12224;SDS011;6175;50.956;11.064;2023-12-20T08:22:16;3.40;;;2.97;;
12224;SDS011;6175;50.956;11.064;2023-12-20T08:24:44;3.60;;;3.30;;
12224;SDS011;6175;50.956;11.064;2023-12-20T08:27:11;5.15;;;3.25;;
12224;SDS011;6175;50.956;11.064;2023-12-20T08:29:38;3.13;;;2.83;;
12224;SDS011;6175;50.956;11.064;2023-12-20T08:32:05;5.70;;;3.50;;
12224;SDS011;6175;50.956;11.064;2023-12-20T08:34:32;5.45;;;3.38;;
12224;SDS011;6175;50.956;11.064;2023-12-20T08:36:59;6.35;;;3.22;;
12224;SDS011;6175;50.956;11.064;2023-12-20T08:39:26;5.68;;;3.30;;
12224;SDS011;6175;50.956;11.064;2023-12-20T08:41:56;4.90;;;2.63;;
12224;SDS011;6175;50.956;11.064;2023-12-20T08:44:23;5.93;;;3.03;;
12224;SDS011;6175;50.956;11.064;2023-12-20T08:46:50;4.70;;;2.80;;
12224;SDS011;6175;50.956;11.064;2023-12-20T08:49:17;3.97;;;2.50;;
12224;SDS011;6175;50.956;11.064;2023-12-20T08:51:45;4.63;;;2.53;;
12224;SDS011;6175;50.956;11.064;2023-12-20T08:54:12;3.83;;;2.50;;
12224;SDS011;6175;50.956;11.064;2023-12-20T08:56:39;4.10;;;2.83;;
12224;SDS011;6175;50.956;11.064;2023-12-20T08:59:07;3.22;;;2.33;;
12224;SDS011;6175;50.956;11.064;2023-12-20T09:01:35;4.32;;;2.53;;
12224;SDS011;6175;50.956;11.064;2023-12-20T09:04:02;5.40;;;2.50;;
12224;SDS011;6175;50.956;11.064;2023-12-20T09:06:31;4.60;;;2.45;;
12224;SDS011;6175;50.956;11.064;2023-12-20T09:08:58;4.88;;;2.30;;
12224;SDS011;6175;50.956;11.064;2023-12-20T09:11:25;4.53;;;2.10;;
12224;SDS011;6175;50.956;11.064;2023-12-20T09:13:52;2.38;;;1.90;;
12224;SDS011;6175;50.956;11.064;2023-12-20T09:16:21;4.10;;;2.47;;
12224;SDS011;6175;50.956;11.064;2023-12-20T09:18:48;3.35;;;1.90;;
12224;SDS011;6175;50.956;11.064;2023-12-20T09:21:17;3.83;;;2.25;;
12224;SDS011;6175;50.956;11.064;2023-12-20T09:23:44;3.55;;;1.90;;
12224;SDS011;6175;50.956;11.064;2023-12-20T09:26:12;3.92;;;2.05;;
12224;SDS011;6175;50.956;11.064;2023-12-20T09:28:39;4.22;;;1.95;;
12224;SDS011;6175;50.956;11.064;2023-12-20T09:31:06;4.03;;;1.80;;
12224;SDS011;6175;50.956;11.064;2023-12-20T09:33:34;2.53;;;1.70;;
12224;SDS011;6175;50.956;11.064;2023-12-20T09:36:02;3.38;;;1.70;;
12224;SDS011;6175;50.956;11.064;2023-12-20T09:38:29;2.53;;;1.77;;
12224;SDS011;6175;50.956;11.064;2023-12-20T09:40:56;3.83;;;2.17;;
12224;SDS011;6175;50.956;11.064;2023-12-20T09:43:23;4.22;;;2.17;;
12224;SDS011;6175;50.956;11.064;2023-12-20T09:45:53;3.65;;;2.13;;
12224;SDS011;6175;50.956;11.064;2023-12-20T09:48:20;6.10;;;2.50;;
12224;SDS011;6175;50.956;11.064;2023-12-20T09:50:49;4.38;;;2.50;;
12224;SDS011;6175;50.956;11.064;2023-12-20T09:53:16;4.97;;;2.63;;
12224;SDS011;6175;50.956;11.064;2023-12-20T09:55:44;3.75;;;2.00;;
12224;SDS011;6175;50.956;11.064;2023-12-20T09:58:11;3.10;;;2.00;;
12224;SDS011;6175;50.956;11.064;2023-12-20T10:00:39;5.18;;;2.45;;
12224;SDS011;6175;50.956;11.064;2023-12-20T10:03:06;2.80;;;2.17;;
12224;SDS011;6175;50.956;11.064;2023-12-20T10:05:33;5.18;;;2.28;;
12224;SDS011;6175;50.956;11.064;2023-12-20T10:08:02;2.65;;;2.00;;
12224;SDS011;6175;50.956;11.064;2023-12-20T10:10:30;6.80;;;2.28;;
12224;SDS011;6175;50.956;11.064;2023-12-20T10:13:06;2.92;;;2.20;;
12224;SDS011;6175;50.956;11.064;2023-12-20T10:15:33;4.82;;;3.00;;
12224;SDS011;6175;50.956;11.064;2023-12-20T10:18:01;5.72;;;2.38;;
12224;SDS011;6175;50.956;11.064;2023-12-20T10:20:28;5.95;;;2.15;;
12224;SDS011;6175;50.956;11.064;2023-12-20T10:22:55;3.15;;;2.10;;
12224;SDS011;6175;50.956;11.064;2023-12-20T10:25:24;4.80;;;2.35;;
12224;SDS011;6175;50.956;11.064;2023-12-20T10:30:37;2.85;;;1.90;;
12224;SDS011;6175;50.956;11.064;2023-12-20T10:33:05;5.88;;;2.05;;
12224;SDS011;6175;50.956;11.064;2023-12-20T10:35:32;3.63;;;2.35;;
12224;SDS011;6175;50.956;11.064;2023-12-20T10:38:00;3.88;;;2.10;;
12224;SDS011;6175;50.956;11.064;2023-12-20T10:40:30;3.67;;;2.20;;
12224;SDS011;6175;50.956;11.064;2023-12-20T10:42:58;4.18;;;2.42;;
12224;SDS011;6175;50.956;11.064;2023-12-20T10:45:27;3.47;;;2.00;;
12224;SDS011;6175;50.956;11.064;2023-12-20T10:47:54;5.28;;;2.00;;
12224;SDS011;6175;50.956;11.064;2023-12-20T10:50:24;4.15;;;2.30;;
12224;SDS011;6175;50.956;11.064;2023-12-20T10:52:51;2.38;;;1.80;;
12224;SDS011;6175;50.956;11.064;2023-12-20T10:55:20;3.47;;;1.95;;
12224;SDS011;6175;50.956;11.064;2023-12-20T10:57:49;3.67;;;2.05;;
12224;SDS011;6175;50.956;11.064;2023-12-20T11:00:19;5.53;;;2.00;;
12224;SDS011;6175;50.956;11.064;2023-12-20T11:02:49;3.50;;;1.90;;
12224;SDS011;6175;50.956;11.064;2023-12-20T11:05:20;6.10;;;2.15;;
12224;SDS011;6175;50.956;11.064;2023-12-20T11:07:50;3.72;;;2.15;;
12224;SDS011;6175;50.956;11.064;2023-12-20T11:10:20;2.78;;;1.92;;
12224;SDS011;6175;50.956;11.064;2023-12-20T11:12:53;2.80;;;2.05;;
12224;SDS011;6175;50.956;11.064;2023-12-20T11:15:21;4.82;;;2.22;;
12224;SDS011;6175;50.956;11.064;2023-12-20T11:17:54;4.25;;;2.05;;
12224;SDS011;6175;50.956;11.064;2023-12-20T11:20:22;5.22;;;2.58;;
12224;SDS011;6175;50.956;11.064;2023-12-20T11:22:52;3.75;;;1.83;;
12224;SDS011;6175;50.956;11.064;2023-12-20T11:25:21;5.47;;;2.17;;
12224;SDS011;6175;50.956;11.064;2023-12-20T11:30:43;3.72;;;1.92;;
12224;SDS011;6175;50.956;11.064;2023-12-20T11:33:12;2.55;;;2.10;;
12224;SDS011;6175;50.956;11.064;2023-12-20T11:35:40;4.55;;;2.53;;
12224;SDS011;6175;50.956;11.064;2023-12-20T11:38:08;5.63;;;2.13;;
12224;SDS011;6175;50.956;11.064;2023-12-20T11:40:35;4.70;;;2.45;;
12224;SDS011;6175;50.956;11.064;2023-12-20T11:43:03;3.67;;;2.20;;
12224;SDS011;6175;50.956;11.064;2023-12-20T11:45:31;5.00;;;1.80;;
12224;SDS011;6175;50.956;11.064;2023-12-20T11:47:59;6.97;;;2.53;;
12224;SDS011;6175;50.956;11.064;2023-12-20T11:50:27;4.97;;;2.00;;
12224;SDS011;6175;50.956;11.064;2023-12-20T11:52:56;5.03;;;2.17;;
12224;SDS011;6175;50.956;11.064;2023-12-20T11:55:23;3.55;;;1.63;;
12224;SDS011;6175;50.956;11.064;2023-12-20T11:57:50;4.40;;;1.85;;
12224;SDS011;6175;50.956;11.064;2023-12-20T12:00:19;5.00;;;2.08;;
12224;SDS011;6175;50.956;11.064;2023-12-20T12:02:57;4.70;;;2.03;;
12224;SDS011;6175;50.956;11.064;2023-12-20T12:05:25;2.83;;;1.88;;
12224;SDS011;6175;50.956;11.064;2023-12-20T12:07:52;7.40;;;2.38;;
12224;SDS011;6175;50.956;11.064;2023-12-20T12:10:19;4.25;;;1.95;;
12224;SDS011;6175;50.956;11.064;2023-12-20T12:12:47;3.70;;;2.13;;
12224;SDS011;6175;50.956;11.064;2023-12-20T12:15:14;3.45;;;2.00;;
12224;SDS011;6175;50.956;11.064;2023-12-20T12:17:42;2.20;;;1.60;;
12224;SDS011;6175;50.956;11.064;2023-12-20T12:20:11;3.53;;;2.10;;
12224;SDS011;6175;50.956;11.064;2023-12-20T12:22:38;3.83;;;2.00;;
12224;SDS011;6175;50.956;11.064;2023-12-20T12:25:14;2.90;;;2.10;;
12224;SDS011;6175;50.956;11.064;2023-12-20T12:27:41;4.70;;;2.08;;
12224;SDS011;6175;50.956;11.064;2023-12-20T12:30:09;4.38;;;2.58;;
12224;SDS011;6175;50.956;11.064;2023-12-20T12:32:38;4.57;;;1.83;;
12224;SDS011;6175;50.956;11.064;2023-12-20T12:35:06;3.63;;;2.05;;
12224;SDS011;6175;50.956;11.064;2023-12-20T12:37:36;2.95;;;1.90;;
12224;SDS011;6175;50.956;11.064;2023-12-20T12:40:05;3.22;;;2.13;;
12224;SDS011;6175;50.956;11.064;2023-12-20T12:42:32;2.90;;;2.08;;
12224;SDS011;6175;50.956;11.064;2023-12-20T12:44:59;3.15;;;1.98;;
12224;SDS011;6175;50.956;11.064;2023-12-20T12:47:26;3.47;;;2.13;;
12224;SDS011;6175;50.956;11.064;2023-12-20T12:49:53;5.22;;;2.05;;
12224;SDS011;6175;50.956;11.064;2023-12-20T12:52:20;5.00;;;2.10;;
12224;SDS011;6175;50.956;11.064;2023-12-20T12:54:49;2.78;;;1.80;;
12224;SDS011;6175;50.956;11.064;2023-12-20T12:57:16;2.08;;;1.63;;
12224;SDS011;6175;50.956;11.064;2023-12-20T12:59:44;3.05;;;2.05;;
12224;SDS011;6175;50.956;11.064;2023-12-20T13:02:11;4.40;;;2.15;;
12224;SDS011;6175;50.956;11.064;2023-12-20T13:04:39;3.33;;;2.00;;
12224;SDS011;6175;50.956;11.064;2023-12-20T13:07:06;4.40;;;1.88;;
12224;SDS011;6175;50.956;11.064;2023-12-20T13:09:35;2.15;;;1.70;;
12224;SDS011;6175;50.956;11.064;2023-12-20T13:12:05;2.72;;;1.90;;
12224;SDS011;6175;50.956;11.064;2023-12-20T13:14:33;3.17;;;2.00;;
12224;SDS011;6175;50.956;11.064;2023-12-20T13:17:02;3.80;;;1.77;;
12224;SDS011;6175;50.956;11.064;2023-12-20T13:19:29;4.25;;;1.88;;
12224;SDS011;6175;50.956;11.064;2023-12-20T13:21:56;4.43;;;2.03;;
12224;SDS011;6175;50.956;11.064;2023-12-20T13:24:24;3.00;;;1.73;;
12224;SDS011;6175;50.956;11.064;2023-12-20T13:26:51;4.07;;;1.98;;
12224;SDS011;6175;50.956;11.064;2023-12-20T13:29:19;2.70;;;1.70;;
12224;SDS011;6175;50.956;11.064;2023-12-20T13:31:47;2.80;;;1.55;;
12224;SDS011;6175;50.956;11.064;2023-12-20T13:34:14;7.22;;;2.08;;
12224;SDS011;6175;50.956;11.064;2023-12-20T13:36:42;2.58;;;2.05;;
12224;SDS011;6175;50.956;11.064;2023-12-20T13:39:12;3.83;;;1.80;;
12224;SDS011;6175;50.956;11.064;2023-12-20T13:41:39;4.28;;;1.90;;
12224;SDS011;6175;50.956;11.064;2023-12-20T13:44:07;3.10;;;1.63;;
12224;SDS011;6175;50.956;11.064;2023-12-20T13:46:35;2.45;;;1.50;;
12224;SDS011;6175;50.956;11.064;2023-12-20T13:49:02;4.53;;;1.77;;
12224;SDS011;6175;50.956;11.064;2023-12-20T13:51:30;2.63;;;1.45;;
12224;SDS011;6175;50.956;11.064;2023-12-20T13:53:58;2.13;;;1.40;;
12224;SDS011;6175;50.956;11.064;2023-12-20T13:56:25;3.38;;;1.85;;
12224;SDS011;6175;50.956;11.064;2023-12-20T13:58:52;3.00;;;1.55;;
12224;SDS011;6175;50.956;11.064;2023-12-20T14:01:19;2.17;;;1.50;;
12224;SDS011;6175;50.956;11.064;2023-12-20T14:03:48;3.20;;;1.63;;
12224;SDS011;6175;50.956;11.064;2023-12-20T14:06:15;3.90;;;1.95;;
12224;SDS011;6175;50.956;11.064;2023-12-20T14:08:43;4.57;;;2.03;;
12224;SDS011;6175;50.956;11.064;2023-12-20T14:11:10;3.63;;;1.67;;
12224;SDS011;6175;50.956;11.064;2023-12-20T14:13:37;2.58;;;1.50;;
12224;SDS011;6175;50.956;11.064;2023-12-20T14:16:04;2.92;;;1.73;;
12224;SDS011;6175;50.956;11.064;2023-12-20T14:18:32;3.83;;;2.10;;
12224;SDS011;6175;50.956;11.064;2023-12-20T14:21:00;2.35;;;1.58;;
12224;SDS011;6175;50.956;11.064;2023-12-20T14:23:27;4.15;;;1.80;;
12224;SDS011;6175;50.956;11.064;2023-12-20T14:25:54;2.83;;;1.67;;
12224;SDS011;6175;50.956;11.064;2023-12-20T14:28:23;3.50;;;1.58;;
12224;SDS011;6175;50.956;11.064;2023-12-20T14:30:50;2.42;;;1.60;;
12224;SDS011;6175;50.956;11.064;2023-12-20T14:33:18;5.60;;;1.92;;
12224;SDS011;6175;50.956;11.064;2023-12-20T14:35:46;4.28;;;1.73;;
12224;SDS011;6175;50.956;11.064;2023-12-20T14:38:15;2.90;;;1.70;;
12224;SDS011;6175;50.956;11.064;2023-12-20T14:40:42;3.10;;;1.60;;
12224;SDS011;6175;50.956;11.064;2023-12-20T14:43:09;3.05;;;1.58;;
12224;SDS011;6175;50.956;11.064;2023-12-20T14:45:36;2.30;;;1.45;;
12224;SDS011;6175;50.956;11.064;2023-12-20T14:48:04;3.05;;;1.55;;
12224;SDS011;6175;50.956;11.064;2023-12-20T14:50:31;2.00;;;1.48;;
12224;SDS011;6175;50.956;11.064;2023-12-20T14:52:58;3.78;;;1.70;;
12224;SDS011;6175;50.956;11.064;2023-12-20T14:55:27;2.38;;;1.40;;